Time;durP1;ratioP1;P1;durP2;ratioP2;P2;SDS_P1;SDS_P2;PMS_P1;PMS_P2;Temp;Humidity;BMP_temperature;BMP_pressure;BME280_temperature;BME280_humidity;BME280_pressure;Samples;Min_cycle;Max_cycle;Signal;HPM_P1;HPM_P2
2021/06/26 00:01:53;;;;;;;18.30;14.05;;;16.60;99.90;;;;;;5031794;28;20018;-69
2021/06/26 00:04:18;;;;;;;21.77;14.57;;;16.60;99.90;;;;;;5034599;28;20041;-69
2021/06/26 00:06:44;;;;;;;20.88;14.65;;;16.60;99.90;;;;;;5035626;28;20111;-69
2021/06/26 00:09:10;;;;;;;20.73;14.38;;;16.50;99.90;;;;;;5035282;28;20052;-69
2021/06/26 00:11:35;;;;;;;22.55;14.57;;;16.40;99.90;;;;;;5034267;28;20064;-69
2021/06/26 00:14:03;;;;;;;21.20;15.27;;;16.30;99.90;;;;;;5035531;28;20025;-69
2021/06/26 00:16:28;;;;;;;23.23;15.60;;;16.30;99.90;;;;;;5017887;28;20417;-69
2021/06/26 00:18:54;;;;;;;25.27;15.50;;;16.30;99.90;;;;;;5017640;28;20056;-69
2021/06/26 00:21:20;;;;;;;20.20;13.25;;;16.30;99.90;;;;;;5035547;28;20037;-69
2021/06/26 00:23:46;;;;;;;21.27;14.75;;;16.30;99.90;;;;;;5035560;28;20040;-69
2021/06/26 00:26:12;;;;;;;23.17;15.35;;;16.30;99.90;;;;;;5035081;28;20079;-69
2021/06/26 00:28:37;;;;;;;18.98;14.05;;;16.30;99.90;;;;;;5035228;28;20026;-68
2021/06/26 00:31:03;;;;;;;21.70;14.25;;;16.30;99.90;;;;;;5035211;28;20447;-69
2021/06/26 00:33:29;;;;;;;21.80;14.07;;;16.30;99.90;;;;;;5035024;28;20029;-68
2021/06/26 00:35:55;;;;;;;22.73;15.55;;;16.30;99.90;;;;;;5017384;28;20044;-68
2021/06/26 00:38:21;;;;;;;26.05;15.60;;;16.30;99.90;;;;;;5035073;28;20414;-68
2021/06/26 00:40:47;;;;;;;19.95;13.85;;;16.20;99.90;;;;;;5017492;28;20037;-69
2021/06/26 00:43:13;;;;;;;20.02;14.13;;;16.20;99.90;;;;;;5034970;28;20033;-69
2021/06/26 00:45:39;;;;;;;25.00;15.30;;;16.20;99.90;;;;;;5034762;28;20029;-69
2021/06/26 00:48:05;;;;;;;21.30;15.35;;;16.20;99.90;;;;;;5017141;28;20026;-69
2021/06/26 00:50:31;;;;;;;20.98;14.75;;;16.10;99.90;;;;;;5034593;28;20036;-69
2021/06/26 00:52:57;;;;;;;24.77;15.88;;;16.10;99.90;;;;;;5016740;28;20029;-68
2021/06/26 00:55:23;;;;;;;21.77;15.45;;;16.10;99.90;;;;;;5035152;28;20049;-68
2021/06/26 00:57:57;;;;;;;28.35;16.73;;;16.10;99.90;;;;;;5017196;28;20026;-68
2021/06/26 01:00:28;;;;;;;25.65;15.57;;;16.10;99.90;;;;;;5034602;28;20551;-68
2021/06/26 01:02:54;;;;;;;;;;;16.10;99.90;;;;;;5035354;28;20033;-68
2021/06/26 01:05:20;;;;;;;23.25;16.00;;;16.00;99.90;;;;;;5033008;28;20004;-68
2021/06/26 01:07:49;;;;;;;23.35;15.80;;;16.00;99.90;;;;;;5034488;28;20037;-68
2021/06/26 01:10:15;;;;;;;25.20;16.05;;;15.90;99.90;;;;;;5017024;28;20448;-68
2021/06/26 01:12:42;;;;;;;26.10;16.92;;;15.90;99.90;;;;;;5017105;28;20049;-68
2021/06/26 01:15:09;;;;;;;28.60;17.00;;;15.90;99.90;;;;;;5016813;28;20025;-68
2021/06/26 01:17:36;;;;;;;24.60;15.23;;;15.90;99.90;;;;;;5034600;28;20025;-68
2021/06/26 01:20:04;;;;;;;26.60;15.52;;;15.90;99.90;;;;;;5034077;28;20033;-68
2021/06/26 01:22:33;;;;;;;20.92;14.15;;;15.70;99.90;;;;;;5034220;28;20075;-68
2021/06/26 01:24:59;;;;;;;20.55;13.45;;;15.50;99.90;;;;;;5016841;28;20060;-69
2021/06/26 01:27:25;;;;;;;21.30;13.73;;;15.40;99.90;;;;;;5034104;28;20029;-69
2021/06/26 01:29:53;;;;;;;22.13;13.57;;;15.30;99.90;;;;;;5016555;28;20056;-69
2021/06/26 01:32:20;;;;;;;20.27;13.27;;;15.20;99.90;;;;;;5016237;28;20120;-69
2021/06/26 01:34:47;;;;;;;24.98;14.73;;;15.20;99.90;;;;;;5034266;28;20030;-69
2021/06/26 01:37:14;;;;;;;20.77;13.27;;;15.20;99.90;;;;;;5034037;28;20486;-69
2021/06/26 01:39:40;;;;;;;24.73;14.27;;;15.20;99.90;;;;;;5034128;28;20029;-68
2021/06/26 01:42:08;;;;;;;20.88;13.60;;;15.20;99.90;;;;;;5033742;28;20569;-68
2021/06/26 01:44:34;;;;;;;26.15;13.40;;;15.10;99.90;;;;;;5033866;28;20402;-69
2021/06/26 01:47:00;;;;;;;20.98;14.35;;;15.10;99.90;;;;;;5016063;28;20042;-68
2021/06/26 01:49:26;;;;;;;19.35;13.63;;;15.20;99.90;;;;;;5016098;28;20029;-68
2021/06/26 01:51:53;;;;;;;25.33;13.77;;;15.20;99.90;;;;;;5016204;28;20528;-68
2021/06/26 01:54:19;;;;;;;18.60;13.13;;;15.20;99.90;;;;;;5033396;28;20033;-68
2021/06/26 01:56:46;;;;;;;22.10;14.18;;;15.30;99.90;;;;;;5033560;28;20099;-68
2021/06/26 01:59:12;;;;;;;19.33;13.35;;;15.30;99.90;;;;;;5033608;28;20070;-68
2021/06/26 02:01:38;;;;;;;19.58;13.90;;;15.30;99.90;;;;;;5033414;28;20029;-68
2021/06/26 02:04:04;;;;;;;22.05;14.50;;;15.40;99.90;;;;;;5012285;28;20159;-68
2021/06/26 02:06:30;;;;;;;21.02;14.15;;;15.40;99.90;;;;;;5012737;28;20069;-68
2021/06/26 02:08:56;;;;;;;18.05;13.68;;;15.40;99.90;;;;;;5012514;28;20026;-68
2021/06/26 02:11:22;;;;;;;20.52;13.88;;;15.30;99.90;;;;;;5013140;28;20323;-68
2021/06/26 02:13:48;;;;;;;19.52;13.18;;;15.40;99.90;;;;;;5012270;28;20379;-68
2021/06/26 02:16:13;;;;;;;16.48;11.75;;;15.40;99.90;;;;;;5013169;28;20050;-68
2021/06/26 02:18:40;;;;;;;19.02;11.65;;;15.20;99.90;;;;;;5013703;28;20401;-68
2021/06/26 02:21:06;;;;;;;17.85;10.55;;;15.10;99.90;;;;;;5013098;28;20044;-68
2021/06/26 02:23:35;;;;;;;18.42;10.90;;;15.00;99.90;;;;;;5012183;28;20100;-68
2021/06/26 02:26:00;;;;;;;16.00;11.70;;;15.00;99.90;;;;;;5012823;28;20026;-68
2021/06/26 02:28:26;;;;;;;22.58;13.55;;;14.90;99.90;;;;;;5011868;28;20384;-68
2021/06/26 02:30:52;;;;;;;21.30;12.52;;;14.80;99.90;;;;;;5012009;28;20038;-68
2021/06/26 02:33:18;;;;;;;24.67;15.20;;;14.80;99.90;;;;;;5012122;28;20497;-68
2021/06/26 02:35:44;;;;;;;24.85;15.13;;;14.90;99.90;;;;;;5013401;28;20038;-68
2021/06/26 02:38:10;;;;;;;24.15;15.63;;;14.90;99.90;;;;;;5012959;28;20056;-68
2021/06/26 02:40:35;;;;;;;25.83;16.40;;;14.90;99.90;;;;;;5013305;28;20034;-68
2021/06/26 02:43:01;;;;;;;20.60;14.98;;;14.90;99.90;;;;;;5012962;28;20030;-68
2021/06/26 02:45:27;;;;;;;22.10;15.77;;;15.00;99.90;;;;;;5013092;28;20042;-68
2021/06/26 02:47:52;;;;;;;19.40;13.80;;;15.00;99.90;;;;;;5012830;28;20030;-68
2021/06/26 02:50:18;;;;;;;21.65;14.57;;;15.00;99.90;;;;;;5012820;28;20074;-68
2021/06/26 02:52:44;;;;;;;26.13;14.38;;;15.10;99.90;;;;;;5012751;28;20105;-68
2021/06/26 02:55:11;;;;;;;20.67;13.90;;;15.20;99.90;;;;;;5012678;28;20034;-68
2021/06/26 02:57:37;;;;;;;21.30;13.65;;;15.20;99.90;;;;;;5012942;28;20029;-68
2021/06/26 03:00:05;;;;;;;19.63;14.07;;;15.20;99.90;;;;;;5011622;28;20092;-68
2021/06/26 03:02:31;;;;;;;22.48;13.15;;;15.20;99.90;;;;;;5011468;28;20133;-68
2021/06/26 03:04:57;;;;;;;20.05;13.40;;;15.10;99.90;;;;;;5011325;28;20054;-68
2021/06/26 03:07:23;;;;;;;16.75;12.40;;;14.80;99.90;;;;;;5012799;28;20144;-69
2021/06/26 03:09:49;;;;;;;15.48;11.38;;;14.50;99.90;;;;;;5012494;28;20100;-68
2021/06/26 03:12:15;;;;;;;18.50;11.02;;;14.50;99.90;;;;;;5011158;28;20483;-68
2021/06/26 03:14:41;;;;;;;18.60;12.38;;;14.60;99.90;;;;;;5011386;28;20053;-68
2021/06/26 03:17:06;;;;;;;20.85;12.65;;;14.70;99.90;;;;;;5011397;28;20045;-69
2021/06/26 03:19:32;;;;;;;19.90;13.45;;;14.60;99.90;;;;;;5012616;28;20026;-68
2021/06/26 03:21:58;;;;;;;19.08;12.70;;;14.40;99.90;;;;;;5011319;28;20483;-68
2021/06/26 03:24:24;;;;;;;22.77;13.35;;;14.30;99.90;;;;;;5011125;28;20036;-68
2021/06/26 03:26:49;;;;;;;26.45;12.88;;;14.40;99.90;;;;;;5012665;28;20045;-68
2021/06/26 03:29:15;;;;;;;19.38;11.68;;;14.60;99.90;;;;;;5012486;28;20409;-68
2021/06/26 03:31:41;;;;;;;18.75;12.30;;;14.60;99.90;;;;;;5012350;28;20471;-68
2021/06/26 03:34:06;;;;;;;22.38;12.40;;;14.50;99.90;;;;;;5012856;28;20042;-68
2021/06/26 03:36:32;;;;;;;18.90;11.85;;;14.60;99.90;;;;;;5012121;28;20034;-69
2021/06/26 03:38:58;;;;;;;20.40;12.50;;;14.50;99.90;;;;;;5014873;28;20099;-68
2021/06/26 03:41:26;;;;;;;19.52;12.18;;;14.50;99.90;;;;;;5016360;28;20042;-68
2021/06/26 03:43:53;;;;;;;16.75;11.73;;;14.50;99.90;;;;;;5015090;28;20418;-68
2021/06/26 03:46:19;;;;;;;19.17;11.70;;;14.60;99.90;;;;;;5016177;28;20080;-68
2021/06/26 03:48:45;;;;;;;18.83;12.57;;;14.60;99.90;;;;;;5015261;28;20030;-69
2021/06/26 03:51:10;;;;;;;18.52;12.18;;;14.60;99.90;;;;;;5016312;28;20038;-69
2021/06/26 03:53:37;;;;;;;18.08;12.10;;;14.50;99.90;;;;;;5015052;28;20494;-69
2021/06/26 03:56:03;;;;;;;19.77;13.60;;;14.60;99.90;;;;;;5015071;28;20514;-69
2021/06/26 03:58:28;;;;;;;18.48;13.35;;;14.50;99.90;;;;;;5014809;28;20030;-69
2021/06/26 04:00:56;;;;;;;18.23;13.32;;;14.60;99.90;;;;;;5016315;28;20030;-69
2021/06/26 04:03:23;;;;;;;17.63;12.10;;;14.60;99.90;;;;;;5016065;28;20049;-68
2021/06/26 04:05:49;;;;;;;20.17;12.63;;;14.70;99.90;;;;;;5013305;28;20141;-68
2021/06/26 04:08:15;;;;;;;20.02;13.73;;;14.80;99.90;;;;;;5014627;28;20105;-68
2021/06/26 04:10:41;;;;;;;20.65;13.48;;;14.80;99.90;;;;;;5014519;28;20041;-68
2021/06/26 04:13:07;;;;;;;20.52;14.07;;;14.90;99.90;;;;;;5013490;28;20022;-68
2021/06/26 04:15:33;;;;;;;21.95;14.85;;;15.00;99.90;;;;;;5014378;28;20048;-68
2021/06/26 04:18:00;;;;;;;20.10;15.15;;;15.10;99.90;;;;;;5014328;28;20038;-68
2021/06/26 04:20:26;;;;;;;19.45;13.70;;;15.00;99.90;;;;;;5014559;28;20049;-68
2021/06/26 04:22:53;;;;;;;18.92;14.07;;;15.10;99.90;;;;;;5013094;28;20033;-68
2021/06/26 04:25:19;;;;;;;22.10;12.52;;;15.20;99.90;;;;;;5013191;28;20061;-68
2021/06/26 04:27:46;;;;;;;23.70;13.80;;;15.30;99.90;;;;;;5013072;28;20045;-68
2021/06/26 04:30:14;;;;;;;19.95;13.07;;;15.30;99.90;;;;;;5012990;28;20037;-68
2021/06/26 04:32:40;;;;;;;15.90;12.23;;;15.50;99.90;;;;;;5013792;28;20392;-68
2021/06/26 04:35:11;;;;;;;17.35;12.38;;;15.50;99.90;;;;;;5014473;28;20026;-68
2021/06/26 04:37:37;;;;;;;21.38;12.23;;;15.50;99.90;;;;;;5012834;28;20026;-69
2021/06/26 04:40:05;;;;;;;17.38;12.52;;;15.60;99.90;;;;;;5012701;28;20100;-68
2021/06/26 04:42:31;;;;;;;15.32;11.45;;;15.60;99.90;;;;;;5012680;28;20446;-69
2021/06/26 04:44:57;;;;;;;18.70;12.63;;;15.70;99.90;;;;;;5013887;28;20113;-69
2021/06/26 04:47:25;;;;;;;29.77;17.48;;;15.70;99.90;;;;;;5012922;28;20025;-69
2021/06/26 04:49:51;;;;;;;43.78;23.52;;;15.70;99.90;;;;;;5012182;28;20041;-69
2021/06/26 04:52:17;;;;;;;38.00;24.75;;;15.80;99.90;;;;;;5013844;28;20120;-69
2021/06/26 04:54:43;;;;;;;24.83;14.27;;;15.80;99.90;;;;;;5013718;28;20113;-70
2021/06/26 04:57:08;;;;;;;30.88;19.52;;;15.80;99.90;;;;;;5013847;28;20038;-61
2021/06/26 04:59:34;;;;;;;26.33;16.98;;;15.80;99.90;;;;;;5013613;28;20030;-64
2021/06/26 05:02:00;;;;;;;28.90;18.52;;;15.90;99.90;;;;;;5014075;28;20034;-64
2021/06/26 05:04:26;;;;;;;21.67;14.48;;;16.00;99.90;;;;;;4970075;28;1493590;-63
2021/06/26 05:06:51;;;;;;;19.90;13.23;;;16.00;99.90;;;;;;5034239;28;20045;-63
2021/06/26 05:09:17;;;;;;;17.50;12.85;;;16.10;99.90;;;;;;5033842;28;20549;-64
2021/06/26 05:11:43;;;;;;;24.65;15.70;;;16.30;99.90;;;;;;5034255;28;20052;-64
2021/06/26 05:14:10;;;;;;;19.38;14.15;;;16.30;99.90;;;;;;5033759;28;20025;-64
2021/06/26 05:16:36;;;;;;;25.83;14.88;;;16.20;99.90;;;;;;5034465;28;20029;-63
2021/06/26 05:19:02;;;;;;;20.65;14.10;;;16.20;99.90;;;;;;5034439;28;20041;-64
2021/06/26 05:21:27;;;;;;;24.90;14.68;;;16.30;99.90;;;;;;5034513;28;20035;-64
2021/06/26 05:23:53;;;;;;;21.77;14.93;;;16.20;99.90;;;;;;5034481;28;20478;-63
2021/06/26 05:26:19;;;;;;;21.42;15.60;;;16.10;99.90;;;;;;5034179;28;20037;-64
2021/06/26 05:28:45;;;;;;;19.90;13.98;;;16.10;99.90;;;;;;5016282;28;20439;-64
2021/06/26 05:31:10;;;;;;;22.02;15.02;;;16.10;99.90;;;;;;5033795;28;20037;-65
2021/06/26 05:33:36;;;;;;;21.65;14.93;;;16.10;99.90;;;;;;5016242;28;20026;-65
2021/06/26 05:36:03;;;;;;;23.35;14.00;;;16.20;99.90;;;;;;5034099;28;20121;-64
2021/06/26 05:38:29;;;;;;;20.35;13.65;;;16.30;99.90;;;;;;5033850;28;20076;-65
2021/06/26 05:40:55;;;;;;;17.65;13.50;;;16.40;99.90;;;;;;5033960;28;20370;-64
2021/06/26 05:43:20;;;;;;;21.75;14.07;;;16.50;99.90;;;;;;5033567;28;20101;-65
2021/06/26 05:45:46;;;;;;;22.67;14.35;;;16.50;99.90;;;;;;5033731;28;20060;-65
2021/06/26 05:48:12;;;;;;;19.92;13.48;;;16.60;99.90;;;;;;5033602;28;20030;-65
2021/06/26 05:50:37;;;;;;;21.10;13.32;;;16.80;99.90;;;;;;5033300;28;20037;-65
2021/06/26 05:53:03;;;;;;;20.20;13.55;;;16.90;99.90;;;;;;5033729;28;20037;-64
2021/06/26 05:55:29;;;;;;;25.27;15.05;;;17.10;99.90;;;;;;5033577;28;20029;-65
2021/06/26 05:57:55;;;;;;;19.98;14.32;;;17.10;99.90;;;;;;5032297;28;20034;-65
2021/06/26 06:00:22;;;;;;;19.83;14.18;;;17.20;99.90;;;;;;5015137;28;20537;-65
2021/06/26 06:02:49;;;;;;;21.35;13.70;;;17.30;99.90;;;;;;5033249;28;20061;-65
2021/06/26 06:05:16;;;;;;;19.65;13.70;;;17.40;99.90;;;;;;5015550;28;20056;-64
2021/06/26 06:07:44;;;;;;;20.13;13.18;;;17.60;99.90;;;;;;5033549;28;20034;-65
2021/06/26 06:10:15;;;;;;;24.40;12.98;;;17.60;99.90;;;;;;5033130;28;20033;-65
2021/06/26 06:12:42;;;;;;;21.27;14.63;;;17.70;99.90;;;;;;5033177;28;20518;-65
2021/06/26 06:15:11;;;;;;;18.25;12.93;;;17.70;99.90;;;;;;5015421;28;20251;-65
2021/06/26 06:17:38;;;;;;;18.92;13.25;;;17.70;99.90;;;;;;5033176;28;20033;-65
2021/06/26 06:20:06;;;;;;;22.17;13.32;;;18.00;99.90;;;;;;5030697;28;20029;-65
2021/06/26 06:22:33;;;;;;;18.60;12.13;;;17.90;99.90;;;;;;5032784;28;20030;-65
2021/06/26 06:24:59;;;;;;;15.75;10.93;;;18.00;99.90;;;;;;5032869;28;20406;-63
2021/06/26 06:27:25;;;;;;;16.50;11.18;;;18.10;99.90;;;;;;5031548;28;20080;-63
2021/06/26 06:29:50;;;;;;;17.92;11.38;;;18.10;99.90;;;;;;5032623;28;20030;-63
2021/06/26 06:32:16;;;;;;;16.75;11.55;;;18.20;99.90;;;;;;5032751;28;20030;-63
2021/06/26 06:34:42;;;;;;;18.35;12.52;;;18.30;99.90;;;;;;5032417;28;20112;-63
2021/06/26 06:37:08;;;;;;;22.33;13.82;;;18.50;99.90;;;;;;5031291;28;20083;-63
2021/06/26 06:39:33;;;;;;;21.63;13.57;;;18.60;99.90;;;;;;5032550;28;20033;-63
2021/06/26 06:41:59;;;;;;;20.52;12.52;;;18.60;99.90;;;;;;5032629;28;20037;-63
2021/06/26 06:44:25;;;;;;;21.52;13.15;;;18.70;99.90;;;;;;5032474;28;20072;-65
2021/06/26 06:46:51;;;;;;;19.83;12.63;;;18.70;99.90;;;;;;5014972;28;20128;-65
2021/06/26 06:49:17;;;;;;;17.95;13.30;;;18.80;99.90;;;;;;5032348;28;20109;-65
2021/06/26 06:51:42;;;;;;;17.38;12.50;;;18.90;99.90;;;;;;5032290;28;20067;-65
2021/06/26 06:54:08;;;;;;;18.58;12.27;;;19.00;99.90;;;;;;5032375;28;20443;-64
2021/06/26 06:56:35;;;;;;;20.17;11.77;;;19.10;99.90;;;;;;5031976;28;20095;-65
2021/06/26 06:59:00;;;;;;;17.35;11.80;;;19.20;99.90;;;;;;5014787;28;20034;-64
2021/06/26 07:01:27;;;;;;;17.85;11.68;;;19.20;99.90;;;;;;5032460;28;20597;-72
2021/06/26 07:03:53;;;;;;;17.35;11.38;;;19.30;99.90;;;;;;5032157;28;20045;-80
2021/06/26 07:06:19;;;;;;;15.85;10.45;;;19.20;99.90;;;;;;5014513;28;20396;-81
2021/06/26 07:08:45;;;;;;;23.42;14.68;;;19.40;99.90;;;;;;5014764;28;20032;-80
2021/06/26 07:11:11;;;;;;;14.95;10.35;;;19.50;99.90;;;;;;5032194;28;20072;-80
2021/06/26 07:13:36;;;;;;;16.02;9.77;;;19.60;99.90;;;;;;5014377;28;20045;-79
2021/06/26 07:16:03;;;;;;;18.85;9.40;;;19.80;99.90;;;;;;5014759;28;20069;-78
2021/06/26 07:18:28;;;;;;;15.13;8.43;;;19.90;99.90;;;;;;5032423;28;20485;-80
2021/06/26 07:20:54;;;;;;;16.80;9.23;;;20.00;99.90;;;;;;5032051;28;20045;-80
2021/06/26 07:23:20;;;;;;;16.63;9.35;;;19.90;99.90;;;;;;5031989;28;20122;-81
2021/06/26 07:25:46;;;;;;;11.55;7.22;;;20.00;99.90;;;;;;5031959;28;20496;-81
2021/06/26 07:28:11;;;;;;;11.60;6.97;;;20.10;99.90;;;;;;5014364;28;20067;-81
2021/06/26 07:30:37;;;;;;;10.27;7.15;;;20.30;99.90;;;;;;5032095;28;20037;-79
2021/06/26 07:33:03;;;;;;;9.45;6.47;;;20.10;99.90;;;;;;5031033;28;20513;-79
2021/06/26 07:35:29;;;;;;;11.82;7.28;;;20.10;99.90;;;;;;5014254;28;20034;-78
2021/06/26 07:37:55;;;;;;;11.82;7.10;;;20.30;99.90;;;;;;5032265;28;20040;-78
2021/06/26 07:40:21;;;;;;;11.18;6.85;;;20.40;99.90;;;;;;5031732;28;20033;-77
2021/06/26 07:42:46;;;;;;;12.73;6.85;;;20.50;99.90;;;;;;5013495;28;20030;-77
2021/06/26 07:45:13;;;;;;;9.93;6.72;;;20.60;99.90;;;;;;5031619;28;20041;-71
2021/06/26 07:47:39;;;;;;;9.20;5.50;;;20.70;99.90;;;;;;5032018;28;20030;-80
2021/06/26 07:50:06;;;;;;;8.73;6.32;;;20.70;99.90;;;;;;5013533;28;20091;-80
2021/06/26 07:52:32;;;;;;;8.55;6.07;;;20.80;99.90;;;;;;5030527;28;20033;-81
2021/06/26 07:54:59;;;;;;;6.68;4.75;;;20.90;99.90;;;;;;5031326;28;20091;-81
2021/06/26 07:57:24;;;;;;;10.15;7.45;;;21.00;99.90;;;;;;5031536;28;20503;-81
2021/06/26 07:59:50;;;;;;;24.52;13.75;;;21.20;99.90;;;;;;5032011;28;20052;-81
2021/06/26 08:02:16;;;;;;;11.90;7.88;;;21.20;99.90;;;;;;5030535;28;20033;-81
2021/06/26 08:04:42;;;;;;;10.15;5.20;;;21.10;99.90;;;;;;5026758;28;20049;-79
2021/06/26 08:07:08;;;;;;;13.00;6.50;;;21.20;99.90;;;;;;5012019;28;20034;-81
2021/06/26 08:09:33;;;;;;;6.45;4.78;;;21.40;99.90;;;;;;5012062;28;20065;-81
2021/06/26 08:11:59;;;;;;;7.88;5.63;;;21.30;99.90;;;;;;5011004;28;20041;-82
2021/06/26 08:14:25;;;;;;;7.78;4.97;;;21.30;99.90;;;;;;5012010;28;20045;-82
2021/06/26 08:16:51;;;;;;;7.35;4.63;;;21.10;99.90;;;;;;5010739;28;20498;-82
2021/06/26 08:19:17;;;;;;;5.95;4.15;;;21.30;99.90;;;;;;4994566;28;20030;-82
2021/06/26 08:21:45;;;;;;;9.02;4.53;;;21.30;99.90;;;;;;5009837;28;20025;-83
2021/06/26 08:24:10;;;;;;;6.07;3.60;;;21.40;99.90;;;;;;5012934;28;20052;-83
2021/06/26 08:26:36;;;;;;;5.45;4.13;;;21.50;99.90;;;;;;5015252;28;20479;-82
2021/06/26 08:29:02;;;;;;;6.35;3.35;;;21.50;99.90;;;;;;5015760;28;20440;-83
2021/06/26 08:31:28;;;;;;;7.47;4.22;;;21.50;99.90;;;;;;5015152;28;20037;-81
2021/06/26 08:33:54;;;;;;;6.35;4.25;;;21.50;99.90;;;;;;5030678;28;20100;-82
2021/06/26 08:36:19;;;;;;;5.57;3.92;;;21.50;99.90;;;;;;5015027;28;20029;-82
2021/06/26 08:38:45;;;;;;;7.63;4.38;;;21.70;99.90;;;;;;5030464;28;20032;-81
2021/06/26 08:41:12;;;;;;;7.43;4.50;;;21.80;99.90;;;;;;5015227;28;20038;-81
2021/06/26 08:43:39;;;;;;;8.90;3.97;;;21.90;99.90;;;;;;5013896;28;20029;-81
2021/06/26 08:46:04;;;;;;;8.13;4.10;;;22.00;99.90;;;;;;5030244;28;20578;-82
2021/06/26 08:48:30;;;;;;;5.85;3.88;;;22.10;99.90;;;;;;5013800;28;20101;-82
2021/06/26 08:50:57;;;;;;;5.10;3.70;;;21.60;99.90;;;;;;5014744;28;20041;-78
2021/06/26 08:53:22;;;;;;;8.45;4.68;;;21.80;99.90;;;;;;5015179;28;20026;-79
2021/06/26 08:55:52;;;;;;;7.55;4.15;;;21.90;99.90;;;;;;5014742;28;20657;-81
2021/06/26 08:58:20;;;;;;;7.68;4.40;;;21.90;99.90;;;;;;5030188;28;20499;-81
2021/06/26 09:00:47;;;;;;;6.18;4.22;;;22.10;99.90;;;;;;5029934;28;20505;-75
2021/06/26 09:03:17;;;;;;;7.90;4.43;;;22.30;99.90;;;;;;5014741;28;20120;-77
2021/06/26 09:05:45;;;;;;;6.60;4.38;;;22.40;99.90;;;;;;5032902;28;20045;-81
2021/06/26 09:08:13;;;;;;;9.00;3.75;;;22.60;99.90;;;;;;5034323;28;20040;-83
2021/06/26 09:10:42;;;;;;;6.00;3.85;;;22.80;99.90;;;;;;5033339;28;20397;-79
2021/06/26 09:13:14;;;;;;;8.07;4.68;;;23.00;99.90;;;;;;5016871;28;20374;-80
2021/06/26 09:15:40;;;;;;;7.10;4.20;;;22.90;99.90;;;;;;5034231;28;20037;-79
2021/06/26 09:18:20;;;;;;;6.10;4.32;;;23.00;99.90;;;;;;5034462;28;20502;-76
2021/06/26 09:20:53;;;;;;;6.25;4.20;;;22.80;99.90;;;;;;5032830;28;20044;-76
2021/06/26 09:23:31;;;;;;;5.53;4.22;;;23.00;99.90;;;;;;5032206;28;20041;-76
2021/06/26 09:26:17;;;;;;;8.02;4.47;;;23.00;99.90;;;;;;5034279;28;20720;-76
2021/06/26 09:28:43;;;;;;;7.68;4.95;;;23.20;99.90;;;;;;5033708;28;20041;-76
2021/06/26 09:31:18;;;;;;;7.18;4.50;;;23.50;99.90;;;;;;5034012;28;20029;-76
2021/06/26 09:33:54;;;;;;;7.38;3.83;;;23.60;99.90;;;;;;5032940;28;20112;-76
2021/06/26 09:36:25;;;;;;;7.95;4.53;;;23.70;99.80;;;;;;5032793;28;20091;-75
2021/06/26 09:39:06;;;;;;;7.13;4.40;;;23.60;99.10;;;;;;5032710;28;20064;-76
2021/06/26 09:41:32;;;;;;;9.77;4.25;;;23.60;98.40;;;;;;5032446;28;20406;-76
2021/06/26 09:44:12;;;;;;;5.45;3.72;;;23.30;98.80;;;;;;5033049;28;20071;-76
2021/06/26 09:46:50;;;;;;;6.07;4.07;;;23.40;99.90;;;;;;5033526;28;20021;-76
2021/06/26 09:49:27;;;;;;;4.85;3.83;;;23.40;99.80;;;;;;5032839;28;20037;-76
2021/06/26 09:52:02;;;;;;;6.90;4.22;;;23.10;99.60;;;;;;5032315;28;20037;-76
2021/06/26 09:54:29;;;;;;;7.75;4.20;;;23.00;99.30;;;;;;5033489;28;20029;-75
2021/06/26 09:56:55;;;;;;;9.00;5.25;;;23.20;99.90;;;;;;5032101;28;20037;-76
2021/06/26 09:59:32;;;;;;;5.45;4.32;;;23.20;99.90;;;;;;5033838;28;20095;-76
2021/06/26 10:01:58;;;;;;;24.52;18.35;;;23.20;99.90;;;;;;5032043;28;20095;-75
2021/06/26 10:04:26;;;;;;;8.32;4.95;;;23.30;99.80;;;;;;5033311;28;20060;-76
2021/06/26 10:06:54;;;;;;;41.88;28.83;;;23.10;99.50;;;;;;5033321;28;20367;-76
2021/06/26 10:09:20;;;;;;;11.25;7.10;;;23.40;99.90;;;;;;5015984;28;20099;-75
2021/06/26 10:11:48;;;;;;;9.10;5.05;;;23.70;99.90;;;;;;5032151;28;20458;-75
2021/06/26 10:14:14;;;;;;;12.43;5.70;;;23.70;99.60;;;;;;5033418;28;20030;-75
2021/06/26 10:16:42;;;;;;;8.45;5.03;;;23.70;99.90;;;;;;5031865;28;20029;-75
2021/06/26 10:19:12;;;;;;;9.73;5.88;;;23.70;99.90;;;;;;5032073;28;20538;-75
2021/06/26 10:21:40;;;;;;;9.88;4.88;;;23.60;99.90;;;;;;5032851;28;20393;-73
2021/06/26 10:24:15;;;;;;;8.38;4.47;;;24.10;99.90;;;;;;5031589;28;20025;-74
2021/06/26 10:26:43;;;;;;;6.63;4.57;;;24.60;99.30;;;;;;5032018;28;20036;-74
2021/06/26 10:29:10;;;;;;;5.82;3.75;;;24.50;98.80;;;;;;5029893;28;20025;-78
2021/06/26 10:31:42;;;;;;;6.88;4.30;;;24.50;98.90;;;;;;5031526;28;20124;-75
2021/06/26 10:34:22;;;;;;;10.15;7.45;;;24.50;99.90;;;;;;5031835;28;20030;-74
2021/06/26 10:36:54;;;;;;;8.00;5.07;;;24.70;99.40;;;;;;5031519;28;20041;-74
2021/06/26 10:39:32;;;;;;;9.82;4.75;;;25.00;98.20;;;;;;5032761;28;20029;-75
2021/06/26 10:42:08;;;;;;;6.28;4.68;;;24.90;98.50;;;;;;5031239;28;20029;-76
2021/06/26 10:44:43;;;;;;;6.65;4.47;;;24.70;99.10;;;;;;5031494;28;20129;-74
2021/06/26 10:47:09;;;;;;;6.90;4.43;;;24.90;98.10;;;;;;5032195;28;20029;-74
2021/06/26 10:49:35;;;;;;;7.53;4.78;;;24.90;98.10;;;;;;5032481;28;20045;-76
2021/06/26 10:52:16;;;;;;;8.02;4.07;;;25.10;98.90;;;;;;5031234;28;20029;-75
2021/06/26 10:54:55;;;;;;;6.72;4.28;;;25.50;97.00;;;;;;5031128;28;20033;-76
2021/06/26 10:57:21;;;;;;;6.32;4.57;;;25.60;96.40;;;;;;5032425;28;20038;-75
2021/06/26 11:00:14;;;;;;;8.00;5.15;;;25.60;96.30;;;;;;5031133;28;20083;-75
2021/06/26 11:02:44;;;;;;;8.45;4.88;;;25.70;96.60;;;;;;5030306;28;20049;-76
2021/06/26 11:05:12;;;;;;;5.78;3.45;;;25.70;95.80;;;;;;5030742;28;20041;-75
2021/06/26 11:07:39;;;;;;;7.47;3.90;;;25.70;95.30;;;;;;5032461;28;20088;-75
2021/06/26 11:10:12;;;;;;;4.68;2.95;;;25.70;96.40;;;;;;5032185;28;20029;-74
2021/06/26 11:12:40;;;;;;;6.15;3.20;;;25.40;95.40;;;;;;5014490;28;20080;-75
2021/06/26 11:15:07;;;;;;;3.53;2.53;;;25.50;93.90;;;;;;5014746;28;20033;-75
2021/06/26 11:17:42;;;;;;;7.25;3.60;;;24.80;94.60;;;;;;5032590;28;20041;-75
2021/06/26 11:20:15;;;;;;;4.82;3.13;;;25.30;94.80;;;;;;5032024;28;20113;-75
2021/06/26 11:22:59;;;;;;;4.60;2.97;;;25.60;94.20;;;;;;5030984;28;20037;-75
2021/06/26 11:25:31;;;;;;;4.97;3.03;;;25.60;94.10;;;;;;5031072;28;20037;-75
2021/06/26 11:28:13;;;;;;;3.30;2.55;;;25.30;93.70;;;;;;5032322;28;20108;-74
2021/06/26 11:30:43;;;;;;;11.40;3.40;;;25.40;93.20;;;;;;5014382;28;20108;-75
2021/06/26 11:33:10;;;;;;;5.33;3.13;;;25.30;92.90;;;;;;5032291;28;20030;-74
2021/06/26 11:35:43;;;;;;;4.93;3.10;;;25.50;93.40;;;;;;5030858;28;20485;-74
2021/06/26 11:38:19;;;;;;;4.65;2.47;;;25.40;92.70;;;;;;5030763;28;20025;-75
2021/06/26 11:40:45;;;;;;;4.35;2.80;;;25.80;93.60;;;;;;5031866;28;20036;-75
2021/06/26 11:43:11;;;;;;;3.97;2.40;;;26.20;92.70;;;;;;5031029;28;20030;-75
2021/06/26 11:45:45;;;;;;;4.63;2.70;;;26.30;91.50;;;;;;5030549;28;20034;-75
2021/06/26 11:48:17;;;;;;;4.57;2.55;;;26.60;91.70;;;;;;5031862;28;20053;-75
2021/06/26 11:50:56;;;;;;;5.22;3.15;;;26.70;91.70;;;;;;5030464;28;20057;-76
2021/06/26 11:53:24;;;;;;;5.13;2.40;;;26.80;91.20;;;;;;5030663;28;20029;-75
2021/06/26 11:55:55;;;;;;;4.63;3.20;;;26.90;91.10;;;;;;5031821;28;20029;-76
2021/06/26 11:58:23;;;;;;;4.70;3.22;;;27.10;89.50;;;;;;5030183;28;20025;-75
2021/06/26 12:01:06;;;;;;;11.23;8.05;;;27.10;89.30;;;;;;5035636;28;20398;-75
2021/06/26 12:03:33;;;;;;;4.60;2.83;;;27.30;89.90;;;;;;5034418;28;20091;-76
2021/06/26 12:06:13;;;;;;;4.82;2.70;;;27.80;87.90;;;;;;5034237;28;20397;-76
2021/06/26 12:08:54;;;;;;;5.20;2.50;;;26.50;87.50;;;;;;5034675;28;20025;-76
2021/06/26 12:11:49;;;;;;;3.90;2.55;;;26.80;90.20;;;;;;5017815;28;20427;-76
2021/06/26 12:14:16;;;;;;;3.47;2.03;;;26.80;90.50;;;;;;5033352;28;20049;-76
2021/06/26 12:16:42;;;;;;;3.22;2.00;;;26.50;88.60;;;;;;5034329;28;20520;-76
2021/06/26 12:19:11;;;;;;;4.88;2.63;;;26.70;89.60;;;;;;5035268;28;20111;-75
2021/06/26 12:21:50;;;;;;;4.50;2.05;;;27.30;88.30;;;;;;5034161;28;20033;-76
2021/06/26 12:24:39;;;;;;;2.75;1.70;;;27.40;86.40;;;;;;5034147;28;20030;-75
2021/06/26 12:27:23;;;;;;;2.78;1.70;;;27.40;83.00;;;;;;5033793;28;20397;-75
2021/06/26 12:30:05;;;;;;;2.95;1.70;;;26.80;85.10;;;;;;5014227;28;20058;-76
2021/06/26 12:32:35;;;;;;;2.20;1.55;;;26.80;83.80;;;;;;4997949;28;20029;-76
2021/06/26 12:35:01;;;;;;;3.13;1.88;;;26.90;83.70;;;;;;5014190;28;20486;-76
2021/06/26 12:37:29;;;;;;;3.42;1.75;;;27.00;85.60;;;;;;5014402;28;20036;-76
2021/06/26 12:40:27;;;;;;;2.47;1.65;;;26.90;86.90;;;;;;5015067;28;20073;-76